createdAt,value
2018-09-26T00:00:13.256Z,81.53
2018-09-26T00:02:54.133Z,81.64
2018-09-26T00:05:23.693Z,81.00
2018-09-26T00:07:56.085Z,80.87
2018-09-26T00:10:25.645Z,80.90
2018-09-26T00:12:55.607Z,81.37
2018-09-26T00:15:25.047Z,81.50
2018-09-26T00:17:55.748Z,81.92
2018-09-26T00:20:25.597Z,81.99
2018-09-26T00:22:55.509Z,81.61
2018-09-26T00:25:25.665Z,81.15
2018-09-26T00:27:55.195Z,81.80
2018-09-26T00:30:24.638Z,82.05
2018-09-26T00:32:54.450Z,81.78
2018-09-26T00:35:24.386Z,81.91
2018-09-26T00:37:54.137Z,82.72
2018-09-26T00:40:23.640Z,82.09
2018-09-26T00:42:53.394Z,82.45
2018-09-26T00:45:23.173Z,82.70
2018-09-26T00:47:52.565Z,82.70
2018-09-26T00:50:22.102Z,82.78
2018-09-26T00:52:52.006Z,83.47
2018-09-26T00:55:21.563Z,83.48
2018-09-26T00:57:50.966Z,83.46
2018-09-26T01:00:21.114Z,83.83
2018-09-26T01:02:50.646Z,84.44
2018-09-26T01:05:20.181Z,84.38
2018-09-26T01:07:49.651Z,84.55
2018-09-26T01:10:20.571Z,84.14
2018-09-26T01:12:50.018Z,84.56
2018-09-26T01:15:19.520Z,84.46
2018-09-26T01:17:49.462Z,84.38
2018-09-26T01:20:19.282Z,85.00
2018-09-26T01:22:48.777Z,85.03
2018-09-26T01:25:18.163Z,85.31
2018-09-26T01:27:47.728Z,85.40
2018-09-26T01:30:19.661Z,85.43
2018-09-26T01:32:49.182Z,85.44
2018-09-26T01:35:18.562Z,85.45
2018-09-26T01:37:48.202Z,85.96
2018-09-26T01:40:19.099Z,85.95
2018-09-26T01:42:48.595Z,86.19
2018-09-26T01:45:17.960Z,86.28
2018-09-26T01:47:47.521Z,86.25
2018-09-26T01:50:16.918Z,86.49
2018-09-26T01:52:46.362Z,86.73
2018-09-26T01:55:18.111Z,87.03
2018-09-26T01:57:47.706Z,87.01
2018-09-26T02:00:17.290Z,87.35
2018-09-26T02:02:46.857Z,87.67
2018-09-26T02:05:16.656Z,87.40
2018-09-26T02:07:46.145Z,87.03
2018-09-26T02:10:16.334Z,87.11
2018-09-26T02:12:45.737Z,87.04
2018-09-26T02:15:16.473Z,87.03
2018-09-26T02:17:45.985Z,87.36
2018-09-26T02:20:17.978Z,87.39
2018-09-26T02:22:47.349Z,87.53
2018-09-26T02:25:16.898Z,87.78
2018-09-26T02:27:46.462Z,87.80
2018-09-26T02:30:15.974Z,87.48
2018-09-26T02:32:45.763Z,87.28
2018-09-26T02:35:17.771Z,87.97
2018-09-26T02:37:47.221Z,88.38
2018-09-26T02:40:16.769Z,88.99
2018-09-26T02:42:46.151Z,88.45
2018-09-26T02:45:15.629Z,87.89
2018-09-26T02:47:45.050Z,87.82
2018-09-26T02:50:14.842Z,87.66
2018-09-26T02:52:44.244Z,88.24
2018-09-26T02:55:13.699Z,88.51
2018-09-26T02:57:43.101Z,88.33
2018-09-26T03:00:12.797Z,88.11
2018-09-26T03:02:42.212Z,88.05
2018-09-26T03:05:11.629Z,88.27
2018-09-26T03:07:41.518Z,88.12
2018-09-26T03:10:11.099Z,88.22
2018-09-26T03:12:40.572Z,88.10
2018-09-26T03:15:15.496Z,87.69
2018-09-26T03:17:45.264Z,87.96
2018-09-26T03:20:14.761Z,88.29
2018-09-26T03:22:59.246Z,88.41
2018-09-26T03:26:00.796Z,88.48
2018-09-26T03:28:30.309Z,88.91
2018-09-26T03:31:00.045Z,88.76
2018-09-26T03:33:29.742Z,89.21
2018-09-26T03:35:59.373Z,89.02
2018-09-26T03:38:28.946Z,89.11
2018-09-26T03:40:58.370Z,88.93
2018-09-26T03:43:27.838Z,88.67
2018-09-26T03:45:57.455Z,88.86
2018-09-26T03:48:28.213Z,89.10
2018-09-26T03:50:57.837Z,88.91
2018-09-26T03:53:27.226Z,88.96
2018-09-26T03:55:57.052Z,89.30
2018-09-26T03:58:26.529Z,88.72
2018-09-26T04:00:55.945Z,88.81
2018-09-26T04:03:25.409Z,88.80
2018-09-26T04:05:55.347Z,88.83
2018-09-26T04:08:24.837Z,89.28
2018-09-26T04:10:54.388Z,89.26
2018-09-26T04:13:23.950Z,89.39
2018-09-26T04:15:55.446Z,89.80
2018-09-26T04:18:25.928Z,89.66
2018-09-26T04:20:56.175Z,89.62
2018-09-26T04:23:25.676Z,89.63
2018-09-26T04:25:55.161Z,89.80
2018-09-26T04:28:24.580Z,89.86
2018-09-26T04:30:54.129Z,89.27
2018-09-26T04:33:23.654Z,89.24
2018-09-26T04:35:53.422Z,89.09
2018-09-26T04:38:23.095Z,89.23
2018-09-26T04:40:52.493Z,89.18
2018-09-26T04:43:22.211Z,90.15
2018-09-26T04:45:52.266Z,90.08
2018-09-26T04:48:22.402Z,89.34
2018-09-26T04:50:52.457Z,88.93
2018-09-26T04:53:21.883Z,89.09
2018-09-26T04:55:51.379Z,89.67
2018-09-26T04:58:20.802Z,89.59
2018-09-26T05:00:51.833Z,89.33
2018-09-26T05:03:21.262Z,88.95
2018-09-26T05:05:50.674Z,88.63
2018-09-26T05:08:20.465Z,88.53
2018-09-26T05:10:49.829Z,88.42
2018-09-26T05:13:19.445Z,88.25
2018-09-26T05:15:49.145Z,88.58
2018-09-26T05:18:18.618Z,89.18
2018-09-26T05:20:48.044Z,88.96
2018-09-26T05:23:17.806Z,88.52
2018-09-26T05:25:51.032Z,88.88
2018-09-26T05:28:20.689Z,88.46
2018-09-26T05:30:50.190Z,88.27
2018-09-26T05:33:19.578Z,88.82
2018-09-26T05:35:49.653Z,88.49
2018-09-26T05:38:19.510Z,88.68
2018-09-26T05:40:49.022Z,88.61
2018-09-26T05:43:18.638Z,88.89
2018-09-26T05:45:48.129Z,89.00
2018-09-26T05:48:17.648Z,88.95
2018-09-26T05:50:48.397Z,89.16
2018-09-26T05:53:17.879Z,89.33
2018-09-26T05:55:47.349Z,89.05
2018-09-26T05:58:17.592Z,88.66
2018-09-26T06:00:47.264Z,89.05
2018-09-26T06:03:16.868Z,89.05
2018-09-26T06:05:48.468Z,88.83
2018-09-26T06:08:18.750Z,88.66
2018-09-26T06:10:48.678Z,88.69
2018-09-26T06:13:18.332Z,89.05
2018-09-26T06:15:49.077Z,88.58
2018-09-26T06:18:18.529Z,88.48
2018-09-26T06:20:48.391Z,87.86
2018-09-26T06:23:21.266Z,88.10
2018-09-26T06:25:51.015Z,87.99
2018-09-26T06:28:20.423Z,87.57
2018-09-26T06:30:49.833Z,87.51
2018-09-26T06:33:19.649Z,86.55
2018-09-26T06:35:49.080Z,85.98
2018-09-26T06:38:18.446Z,84.76
2018-09-26T06:40:48.091Z,83.62
2018-09-26T06:43:17.666Z,82.51
2018-09-26T06:45:47.370Z,82.73
2018-09-26T06:48:17.163Z,82.83
2018-09-26T06:50:46.554Z,81.70
2018-09-26T06:53:15.920Z,80.01
2018-09-26T06:55:45.361Z,79.97
2018-09-26T06:58:16.400Z,79.59
2018-09-26T07:00:45.921Z,78.49
2018-09-26T07:03:15.514Z,77.58
2018-09-26T07:05:44.957Z,78.79
2018-09-26T07:08:14.463Z,79.80
2018-09-26T07:10:43.877Z,80.37
2018-09-26T07:13:13.677Z,79.19
2018-09-26T07:15:46.369Z,77.59
2018-09-26T07:18:17.458Z,73.47
2018-09-26T07:20:46.994Z,68.67
2018-09-26T07:23:16.693Z,64.20
2018-09-26T07:25:46.320Z,60.23
2018-09-26T07:28:16.177Z,58.81
2018-09-26T07:30:45.581Z,58.22
2018-09-26T07:33:15.074Z,55.63
2018-09-26T07:35:44.821Z,52.64
2018-09-26T07:38:14.204Z,53.16
2018-09-26T07:40:43.582Z,50.29
2018-09-26T07:43:13.298Z,49.27
2018-09-26T07:45:42.762Z,48.51
2018-09-26T07:48:12.341Z,49.82
2018-09-26T07:50:42.239Z,48.47
2018-09-26T07:53:11.850Z,49.26
2018-09-26T07:55:41.254Z,48.01
2018-09-26T07:58:10.981Z,41.99
2018-09-26T08:00:40.554Z,43.04
2018-09-26T08:03:10.082Z,42.82
2018-09-26T08:05:40.985Z,42.70
2018-09-26T08:08:10.473Z,42.37
2018-09-26T08:10:39.899Z,41.46
2018-09-26T08:13:09.750Z,40.07
2018-09-26T08:15:40.588Z,40.51
2018-09-26T08:18:10.402Z,41.47
2018-09-26T08:20:40.197Z,39.92
2018-09-26T08:23:10.301Z,39.66
2018-09-26T08:25:42.770Z,38.88
2018-09-26T08:28:13.966Z,38.12
2018-09-26T08:30:43.771Z,38.26
2018-09-26T08:33:13.649Z,36.84
2018-09-26T08:35:43.385Z,35.52
2018-09-26T08:38:13.067Z,36.57
2018-09-26T08:40:42.621Z,37.46
2018-09-26T08:43:13.513Z,35.71
2018-09-26T08:45:43.242Z,36.29
2018-09-26T08:48:12.874Z,37.47
2018-09-26T08:50:42.419Z,36.70
2018-09-26T08:53:12.211Z,34.88
2018-09-26T08:55:42.323Z,33.67
2018-09-26T08:58:12.202Z,34.71
2018-09-26T09:00:41.748Z,34.07
2018-09-26T09:03:11.344Z,33.98
2018-09-26T09:05:41.304Z,34.60
2018-09-26T09:08:11.303Z,37.39
2018-09-26T09:10:41.047Z,37.86
2018-09-26T09:13:10.619Z,37.66
2018-09-26T09:15:40.120Z,36.69
2018-09-26T09:18:26.891Z,35.48
2018-09-26T09:20:57.648Z,35.29
2018-09-26T09:23:27.995Z,33.86
2018-09-26T09:25:59.801Z,33.15
2018-09-26T09:28:29.341Z,33.52
2018-09-26T09:30:58.746Z,35.07
2018-09-26T09:33:28.173Z,37.09
2018-09-26T09:35:59.954Z,34.80
2018-09-26T09:38:29.475Z,35.35
2018-09-26T09:40:58.877Z,36.92
2018-09-26T09:43:28.499Z,38.12
2018-09-26T09:45:57.960Z,37.59
2018-09-26T09:48:27.415Z,38.79
2018-09-26T09:50:58.164Z,38.79
2018-09-26T09:53:27.913Z,39.34
2018-09-26T09:55:57.438Z,42.15
2018-09-26T09:58:30.634Z,39.89
2018-09-26T10:01:05.173Z,39.61
2018-09-26T10:03:35.137Z,38.03
2018-09-26T10:06:05.049Z,37.39
2018-09-26T10:08:43.035Z,36.10
2018-09-26T10:11:14.362Z,35.80
2018-09-26T10:13:46.122Z,35.05
2018-09-26T10:16:15.935Z,35.86
2018-09-26T10:18:45.950Z,37.34
2018-09-26T10:21:16.752Z,39.35
2018-09-26T10:23:46.392Z,38.53
2018-09-26T10:26:26.592Z,39.53
2018-09-26T10:28:56.221Z,40.74
2018-09-26T10:31:26.241Z,40.07
2018-09-26T10:33:56.582Z,41.88
2018-09-26T10:36:28.970Z,39.86
2018-09-26T10:42:09.848Z,39.85
2018-09-26T10:44:39.578Z,40.59
2018-09-26T10:47:11.897Z,40.60
2018-09-26T10:49:42.295Z,40.86
2018-09-26T10:52:14.434Z,40.54
2018-09-26T10:54:44.988Z,39.98
2018-09-26T10:57:14.633Z,39.64
2018-09-26T10:59:44.259Z,41.88
2018-09-26T11:02:14.612Z,41.41
2018-09-26T11:04:44.920Z,42.33
2018-09-26T11:07:22.402Z,43.98
2018-09-26T11:09:52.636Z,41.48
2018-09-26T11:12:22.374Z,41.40
2018-09-26T11:14:51.921Z,40.85
2018-09-26T11:17:21.426Z,40.20
2018-09-26T11:19:50.859Z,39.43
2018-09-26T11:22:20.465Z,38.51
2018-09-26T11:24:51.501Z,39.46
2018-09-26T11:27:20.959Z,39.47
2018-09-26T11:29:50.524Z,41.83
2018-09-26T11:32:20.053Z,39.31
2018-09-26T11:34:49.510Z,39.00
2018-09-26T11:37:19.441Z,40.94
2018-09-26T11:40:02.664Z,39.08
2018-09-26T11:42:33.708Z,38.27
2018-09-26T11:45:03.731Z,39.45
2018-09-26T11:47:35.007Z,38.48
2018-09-26T11:50:04.706Z,36.15
2018-09-26T11:52:35.952Z,38.18
2018-09-26T11:55:13.964Z,37.76
2018-09-26T11:57:44.946Z,38.78
2018-09-26T12:00:15.029Z,39.94
2018-09-26T12:02:55.233Z,37.62
2018-09-26T12:05:25.145Z,37.82
2018-09-26T12:07:54.749Z,37.16
2018-09-26T12:10:27.281Z,37.60
2018-09-26T12:12:57.066Z,37.64
2018-09-26T12:15:28.002Z,36.79
2018-09-26T12:17:57.770Z,34.70
2018-09-26T12:20:27.241Z,35.52
2018-09-26T12:22:58.010Z,35.35
2018-09-26T12:25:27.509Z,35.54
2018-09-26T12:27:57.148Z,34.32
2018-09-26T12:30:26.666Z,36.46
2018-09-26T12:32:56.405Z,37.07
2018-09-26T12:35:25.953Z,33.93
2018-09-26T12:37:55.393Z,35.58
2018-09-26T12:40:25.120Z,33.94
2018-09-26T12:42:55.520Z,33.75
2018-09-26T12:45:24.981Z,35.56
2018-09-26T12:47:54.740Z,33.39
2018-09-26T12:50:24.200Z,33.05
2018-09-26T12:52:53.803Z,32.86
2018-09-26T12:55:23.964Z,33.24
2018-09-26T12:57:54.147Z,32.12
2018-09-26T13:00:25.425Z,29.99
2018-09-26T13:02:55.056Z,28.27
2018-09-26T13:05:26.128Z,30.16
2018-09-26T13:07:56.120Z,29.78
2018-09-26T13:10:25.676Z,31.28
2018-09-26T13:12:55.319Z,29.83
2018-09-26T13:15:24.845Z,26.68
2018-09-26T13:17:54.484Z,25.15
2018-09-26T13:20:24.011Z,27.69
2018-09-26T13:22:53.805Z,25.53
2018-09-26T13:25:23.410Z,23.46
2018-09-26T13:27:53.070Z,24.57
2018-09-26T13:30:22.731Z,25.56
2018-09-26T13:32:52.740Z,27.36
2018-09-26T13:35:22.473Z,27.55
2018-09-26T13:37:52.004Z,29.14
2018-09-26T13:40:21.686Z,28.56
2018-09-26T13:42:55.208Z,27.87
2018-09-26T13:45:24.731Z,29.11
2018-09-26T13:47:54.288Z,29.77
2018-09-26T13:50:24.244Z,29.76
2018-09-26T13:52:53.997Z,32.12
2018-09-26T13:55:24.124Z,29.80
2018-09-26T13:57:54.165Z,30.10
2018-09-26T14:00:25.608Z,28.42
2018-09-26T14:02:56.646Z,26.98
2018-09-26T14:05:29.014Z,26.29
2018-09-26T14:08:00.033Z,26.11
2018-09-26T14:10:33.525Z,24.60
2018-09-26T14:13:04.938Z,23.22
2018-09-26T14:15:34.613Z,23.91
2018-09-26T14:18:05.266Z,23.81
2018-09-26T14:20:36.581Z,24.45
2018-09-26T14:23:07.709Z,24.08
2018-09-26T14:25:40.420Z,24.93
2018-09-26T14:28:10.479Z,25.33
2018-09-26T14:30:41.446Z,26.67
2018-09-26T14:33:18.178Z,27.43
2018-09-26T14:35:50.345Z,27.04
2018-09-26T14:38:20.059Z,27.97
2018-09-26T14:40:51.679Z,26.80
2018-09-26T14:43:21.189Z,28.19
2018-09-26T14:45:51.096Z,29.23
2018-09-26T14:48:20.470Z,31.04
2018-09-26T14:50:50.219Z,30.76
2018-09-26T14:53:19.837Z,30.95
2018-09-26T15:01:41.085Z,34.40
2018-09-26T15:04:11.995Z,35.19
2018-09-26T15:06:45.815Z,34.74
2018-09-26T15:09:17.731Z,34.06
2018-09-26T15:11:47.424Z,31.34
2018-09-26T15:14:19.576Z,31.88
2018-09-26T15:16:50.249Z,32.03
2018-09-26T15:19:20.399Z,32.06
2018-09-26T15:21:50.628Z,32.13
2018-09-26T15:24:24.546Z,35.08
2018-09-26T15:26:54.226Z,34.03
2018-09-26T15:29:23.874Z,35.07
2018-09-26T15:31:54.514Z,34.74
2018-09-26T15:34:25.037Z,31.97
2018-09-26T15:36:58.469Z,31.95
2018-09-26T15:42:11.967Z,31.80
2018-09-26T15:44:43.290Z,31.09
2018-09-26T15:47:12.826Z,31.11
2018-09-26T15:49:43.379Z,32.07
2018-09-26T15:52:13.116Z,33.34
2018-09-26T15:54:43.267Z,33.68
2018-09-26T15:57:12.860Z,33.89
2018-09-26T15:59:46.802Z,35.27
2018-09-26T16:02:21.989Z,36.18
2018-09-26T16:05:03.518Z,36.20
2018-09-26T16:07:37.449Z,35.64
2018-09-26T16:10:08.972Z,36.36
2018-09-26T16:12:42.155Z,36.32
2018-09-26T16:15:15.729Z,36.24
2018-09-26T16:17:48.079Z,37.35
2018-09-26T16:20:22.360Z,37.27
2018-09-26T16:22:53.002Z,37.05
2018-09-26T16:25:23.117Z,36.73
2018-09-26T16:27:57.437Z,37.77
2018-09-26T16:30:30.221Z,37.07
2018-09-26T16:35:51.126Z,37.33
2018-09-26T16:38:20.791Z,37.88
2018-09-26T16:40:51.975Z,40.21
2018-09-26T16:43:22.126Z,40.51
2018-09-26T16:45:52.805Z,43.31
2018-09-26T16:48:23.242Z,45.21
2018-09-26T16:50:54.300Z,45.69
2018-09-26T16:53:23.807Z,45.28
2018-09-26T16:58:49.109Z,47.32
2018-09-26T17:01:24.142Z,47.80
2018-09-26T17:03:55.904Z,49.50
2018-09-26T17:06:26.192Z,48.90
2018-09-26T17:09:00.467Z,48.25
2018-09-26T17:11:31.869Z,49.26
2018-09-26T17:14:01.553Z,50.60
2018-09-26T17:16:31.659Z,48.93
2018-09-26T17:19:20.849Z,50.21
2018-09-26T17:22:04.093Z,51.41
2018-09-26T17:24:34.645Z,52.66
2018-09-26T17:27:20.139Z,52.88
2018-09-26T17:29:50.558Z,52.60
2018-09-26T17:32:21.519Z,53.88
2018-09-26T17:34:51.311Z,55.00
2018-09-26T17:37:21.787Z,55.99
2018-09-26T17:39:54.041Z,54.92
2018-09-26T17:42:29.139Z,55.36
2018-09-26T17:45:01.446Z,55.59
2018-09-26T17:47:31.453Z,56.21
2018-09-26T17:50:02.928Z,57.83
2018-09-26T17:52:32.763Z,57.01
2018-09-26T17:55:02.391Z,56.88
2018-09-26T17:57:32.162Z,56.74
2018-09-26T18:00:01.817Z,58.01
2018-09-26T18:02:31.345Z,57.87
2018-09-26T18:05:01.237Z,58.46
2018-09-26T18:07:30.765Z,59.49
2018-09-26T18:10:00.387Z,59.57
2018-09-26T18:12:30.905Z,59.20
2018-09-26T18:15:00.407Z,59.95
2018-09-26T18:17:29.900Z,59.96
2018-09-26T18:19:59.440Z,60.19
2018-09-26T18:22:29.287Z,59.90
2018-09-26T18:24:58.899Z,60.66
2018-09-26T18:27:28.614Z,60.82
2018-09-26T18:29:58.413Z,61.79
2018-09-26T18:32:27.890Z,62.39
2018-09-26T18:34:57.706Z,62.59
2018-09-26T18:37:27.145Z,62.93
2018-09-26T18:39:56.686Z,62.65
2018-09-26T18:42:26.212Z,62.86
2018-09-26T18:44:55.727Z,63.92
2018-09-26T18:47:25.414Z,64.23
2018-09-26T18:50:03.649Z,64.19
2018-09-26T18:52:33.197Z,64.78
2018-09-26T18:55:02.724Z,65.60
2018-09-26T18:57:32.360Z,65.84
2018-09-26T19:00:02.156Z,66.22
2018-09-26T19:02:31.653Z,67.15
2018-09-26T19:05:02.520Z,67.52
2018-09-26T19:07:32.074Z,66.94
2018-09-26T19:10:05.116Z,67.22
2018-09-26T19:12:35.940Z,67.79
2018-09-26T19:15:05.793Z,68.31
2018-09-26T19:17:35.340Z,68.56
2018-09-26T19:20:04.922Z,69.39
2018-09-26T19:22:54.565Z,69.67
2018-09-26T19:25:24.250Z,69.67
2018-09-26T19:27:53.853Z,69.64
2018-09-26T19:30:23.368Z,70.52
2018-09-26T19:32:53.223Z,71.56
2018-09-26T19:35:23.105Z,71.69
2018-09-26T19:37:55.950Z,71.86
2018-09-26T19:40:25.657Z,72.04
2018-09-26T19:42:58.908Z,72.21
2018-09-26T19:45:29.753Z,72.73
2018-09-26T19:48:00.662Z,72.83
2018-09-26T19:50:30.191Z,73.67
2018-09-26T19:52:59.856Z,74.29
2018-09-26T19:55:29.903Z,73.92
2018-09-26T19:57:59.536Z,73.86
2018-09-26T20:00:29.247Z,74.75
2018-09-26T20:02:58.954Z,74.76
2018-09-26T20:05:28.473Z,74.91
2018-09-26T20:07:57.999Z,74.84
2018-09-26T20:10:29.867Z,74.99
2018-09-26T20:12:59.647Z,75.66
2018-09-26T20:15:29.388Z,75.54
2018-09-26T20:17:59.386Z,76.12
2018-09-26T20:20:29.017Z,76.16
2018-09-26T20:22:58.547Z,76.36
2018-09-26T20:25:28.352Z,76.56
2018-09-26T20:27:58.224Z,76.97
2018-09-26T20:30:27.836Z,76.90
2018-09-26T20:32:57.728Z,77.15
2018-09-26T20:35:28.086Z,76.43
2018-09-26T20:37:57.847Z,77.13
2018-09-26T20:40:27.713Z,77.06
2018-09-26T20:43:28.237Z,77.21
2018-09-26T20:45:59.111Z,77.16
2018-09-26T20:48:28.825Z,77.65
2018-09-26T20:50:58.594Z,78.36
2018-09-26T20:53:29.105Z,78.31
2018-09-26T20:55:59.380Z,78.87
2018-09-26T20:58:29.159Z,79.32
2018-09-26T21:00:58.668Z,78.90
2018-09-26T21:03:28.193Z,78.96
2018-09-26T21:05:58.061Z,79.39
2018-09-26T21:08:28.213Z,79.91
2018-09-26T21:10:57.904Z,79.66
2018-09-26T21:13:27.421Z,80.11
2018-09-26T21:15:57.329Z,79.93
2018-09-26T21:18:26.929Z,79.99
2018-09-26T21:20:56.737Z,80.24
2018-09-26T21:23:26.359Z,80.22
2018-09-26T21:25:55.897Z,80.74
2018-09-26T21:28:25.403Z,80.67
2018-09-26T21:30:58.713Z,80.84
2018-09-26T21:33:28.372Z,80.92
2018-09-26T21:35:58.113Z,81.23
2018-09-26T21:38:27.638Z,81.51
2018-09-26T21:40:57.317Z,81.93
2018-09-26T21:43:26.794Z,81.60
2018-09-26T21:45:56.341Z,82.04
2018-09-26T21:48:25.878Z,82.54
2018-09-26T21:50:55.447Z,82.30
2018-09-26T21:53:24.974Z,82.44
2018-09-26T21:55:55.718Z,81.70
2018-09-26T21:58:25.329Z,81.86
2018-09-26T22:00:59.946Z,82.62
2018-09-26T22:03:29.664Z,82.33
2018-09-26T22:06:04.252Z,82.47
2018-09-26T22:08:33.814Z,83.15
2018-09-26T22:11:03.342Z,83.40
2018-09-26T22:13:33.260Z,83.74
2018-09-26T22:16:05.199Z,82.54
2018-09-26T22:18:36.029Z,82.91
2018-09-26T22:21:05.543Z,83.11
2018-09-26T22:23:35.365Z,83.33
2018-09-26T22:26:04.816Z,82.66
2018-09-26T22:28:34.315Z,82.56
2018-09-26T22:31:18.675Z,82.68
2018-09-26T22:33:48.686Z,82.90
2018-09-26T22:36:19.122Z,83.06
2018-09-26T22:38:49.003Z,83.85
2018-09-26T22:41:18.606Z,83.75
2018-09-26T22:43:48.136Z,84.61
2018-09-26T22:46:17.598Z,84.85
2018-09-26T22:48:47.134Z,85.19
2018-09-26T22:51:16.617Z,85.31
2018-09-26T22:53:48.866Z,85.45
2018-09-26T22:56:37.278Z,85.50
2018-09-26T22:59:06.891Z,85.67
2018-09-26T23:01:49.237Z,85.63
2018-09-26T23:04:18.922Z,85.39
2018-09-26T23:06:48.512Z,85.67
2018-09-26T23:09:18.098Z,85.87
2018-09-26T23:11:48.000Z,86.09
2018-09-26T23:14:17.713Z,85.90
2018-09-26T23:16:47.209Z,85.81
2018-09-26T23:19:16.700Z,86.32
2018-09-26T23:21:46.133Z,86.37
2018-09-26T23:24:15.658Z,86.41
2018-09-26T23:26:45.574Z,86.33
2018-09-26T23:29:15.111Z,86.65
2018-09-26T23:31:44.529Z,86.88
2018-09-26T23:34:13.900Z,86.53
2018-09-26T23:36:43.461Z,86.63
2018-09-26T23:39:13.073Z,86.80
2018-09-26T23:41:42.865Z,86.69
2018-09-26T23:44:12.452Z,86.79
2018-09-26T23:46:41.874Z,87.23
2018-09-26T23:49:12.703Z,87.24
2018-09-26T23:51:42.769Z,87.17
2018-09-26T23:54:12.692Z,87.50
2018-09-26T23:56:42.303Z,87.65
2018-09-26T23:59:11.947Z,87.76
